createdAt,value
2019-04-10T00:01:02.152Z,8.20
2019-04-10T00:03:33.674Z,8.20
2019-04-10T00:06:00.689Z,8.20
2019-04-10T00:08:30.296Z,8.20
2019-04-10T00:10:58.914Z,8.30
2019-04-10T00:13:28.850Z,8.30
2019-04-10T00:15:57.489Z,8.30
2019-04-10T00:18:26.275Z,8.30
2019-04-10T00:20:54.804Z,8.30
2019-04-10T00:23:23.245Z,8.20
2019-04-10T00:25:51.722Z,8.10
2019-04-10T00:28:20.286Z,8.20
2019-04-10T00:30:49.354Z,8.10
2019-04-10T00:33:18.842Z,8.10
2019-04-10T00:35:47.704Z,8.10
2019-04-10T00:38:16.239Z,8.10
2019-04-10T00:40:45.581Z,8.10
2019-04-10T00:43:14.887Z,8.00
2019-04-10T00:45:44.015Z,8.10
2019-04-10T00:48:12.627Z,8.00
2019-04-10T00:50:41.076Z,8.00
2019-04-10T00:53:10.282Z,8.00
2019-04-10T00:55:39.807Z,8.00
2019-04-10T00:58:08.404Z,7.90
2019-04-10T01:00:37.052Z,7.90
2019-04-10T01:03:05.477Z,7.90
2019-04-10T01:05:33.970Z,7.90
2019-04-10T01:08:02.436Z,7.80
2019-04-10T01:10:30.847Z,7.90
2019-04-10T01:12:59.314Z,7.70
2019-04-10T01:15:28.741Z,7.70
2019-04-10T01:17:57.397Z,7.50
2019-04-10T01:20:25.892Z,7.50
2019-04-10T01:22:55.200Z,7.30
2019-04-10T01:25:24.193Z,7.30
2019-04-10T01:27:52.688Z,7.20
2019-04-10T01:30:22.165Z,7.30
2019-04-10T01:32:50.672Z,7.30
2019-04-10T01:35:20.235Z,7.30
2019-04-10T01:37:54.577Z,7.30
2019-04-10T01:40:19.129Z,7.40
2019-04-10T01:43:03.667Z,7.20
2019-04-10T01:45:19.521Z,7.20
2019-04-10T01:47:48.073Z,7.20
2019-04-10T01:50:16.516Z,7.20
2019-04-10T01:52:45.008Z,7.20
2019-04-10T01:55:20.088Z,7.20
2019-04-10T01:57:44.198Z,7.10
2019-04-10T02:00:15.243Z,7.10
2019-04-10T02:05:14.488Z,7.20
2019-04-10T02:07:43.094Z,7.00
2019-04-10T02:10:12.059Z,7.00
2019-04-10T02:15:11.851Z,6.80
2019-04-10T02:17:40.842Z,6.80
2019-04-10T02:20:10.469Z,6.80
2019-04-10T02:22:39.096Z,6.90
2019-04-10T02:27:35.847Z,6.80
2019-04-10T02:30:09.318Z,6.80
2019-04-10T02:32:37.629Z,6.80
2019-04-10T02:35:27.442Z,6.80
2019-04-10T02:37:57.865Z,6.80
2019-04-10T02:40:26.089Z,6.90
2019-04-10T02:42:54.794Z,6.80
2019-04-10T02:45:24.162Z,6.80
2019-04-10T02:47:53.005Z,6.80
2019-04-10T02:50:21.521Z,6.80
2019-04-10T02:52:50.906Z,6.80
2019-04-10T02:55:19.507Z,6.70
2019-04-10T02:57:47.980Z,6.60
2019-04-10T03:00:18.106Z,6.60
2019-04-10T03:02:47.883Z,6.60
2019-04-10T03:05:17.769Z,6.50
2019-04-10T03:07:48.174Z,6.50
2019-04-10T03:10:25.450Z,6.40
2019-04-10T03:12:48.294Z,6.20
2019-04-10T03:15:17.356Z,6.20
2019-04-10T03:17:48.266Z,6.20
2019-04-10T03:20:16.808Z,6.10
2019-04-10T03:22:45.270Z,6.10
2019-04-10T03:25:14.819Z,6.10
2019-04-10T03:27:43.390Z,6.00
2019-04-10T03:30:14.598Z,6.10
2019-04-10T03:32:50.232Z,6.00
2019-04-10T03:35:24.853Z,6.10
2019-04-10T03:37:53.315Z,6.00
2019-04-10T03:40:21.764Z,6.10
2019-04-10T03:42:50.218Z,6.10
2019-04-10T03:45:18.654Z,6.00
2019-04-10T03:47:47.396Z,6.10
2019-04-10T03:50:16.310Z,6.10
2019-04-10T03:52:45.368Z,6.00
2019-04-10T03:55:13.866Z,5.90
2019-04-10T03:57:42.821Z,6.10
2019-04-10T04:00:12.132Z,5.90
2019-04-10T04:02:40.670Z,5.80
2019-04-10T04:05:09.117Z,5.70
2019-04-10T04:07:38.783Z,5.60
2019-04-10T04:10:09.321Z,5.50
2019-04-10T04:12:37.510Z,5.50
2019-04-10T04:15:06.811Z,5.80
2019-04-10T04:17:36.034Z,5.80
2019-04-10T04:20:05.062Z,5.80
2019-04-10T04:22:33.745Z,5.80
2019-04-10T04:25:02.489Z,5.80
2019-04-10T04:27:30.952Z,5.90
2019-04-10T04:29:59.642Z,5.70
2019-04-10T04:32:29.294Z,5.80
2019-04-10T04:34:57.920Z,5.70
2019-04-10T04:37:26.376Z,5.80
2019-04-10T04:39:54.811Z,5.70
2019-04-10T04:42:24.473Z,5.80
2019-04-10T04:44:54.158Z,5.80
2019-04-10T04:47:22.702Z,5.60
2019-04-10T04:49:52.291Z,5.60
2019-04-10T04:52:20.790Z,5.40
2019-04-10T04:54:49.806Z,5.60
2019-04-10T04:57:18.362Z,5.40
2019-04-10T04:59:46.817Z,5.40
2019-04-10T05:02:15.278Z,5.40
2019-04-10T05:04:43.861Z,5.50
2019-04-10T05:07:13.439Z,5.50
2019-04-10T05:09:42.306Z,5.70
2019-04-10T05:12:11.311Z,5.80
2019-04-10T05:14:39.959Z,5.70
2019-04-10T05:17:08.479Z,5.60
2019-04-10T05:19:36.927Z,5.60
2019-04-10T05:22:06.018Z,5.70
2019-04-10T05:24:34.558Z,5.70
2019-04-10T05:27:02.986Z,5.70
2019-04-10T05:29:31.454Z,5.70
2019-04-10T05:32:00.875Z,5.70
2019-04-10T05:34:29.622Z,5.70
2019-04-10T05:36:58.839Z,5.80
2019-04-10T05:39:39.180Z,5.90
2019-04-10T05:41:57.469Z,5.50
2019-04-10T05:44:25.886Z,5.80
2019-04-10T05:46:54.876Z,5.70
2019-04-10T05:49:23.380Z,5.90
2019-04-10T05:51:51.813Z,5.90
2019-04-10T05:54:20.258Z,5.90
2019-04-10T05:56:48.676Z,5.70
2019-04-10T05:59:17.176Z,5.80
2019-04-10T06:01:45.762Z,5.90
2019-04-10T06:04:14.167Z,5.90
2019-04-10T06:06:42.583Z,5.80
2019-04-10T06:09:12.122Z,5.60
2019-04-10T06:11:42.941Z,5.60
2019-04-10T06:14:10.771Z,5.60
2019-04-10T06:16:39.206Z,5.60
2019-04-10T06:19:07.974Z,5.70
2019-04-10T06:21:37.426Z,5.60
2019-04-10T06:24:06.258Z,5.70
2019-04-10T06:26:35.505Z,5.70
2019-04-10T06:29:04.427Z,5.80
2019-04-10T06:31:33.054Z,5.90
2019-04-10T12:40:44.683Z,17.50
2019-04-10T12:43:13.146Z,17.10
2019-04-10T12:45:41.718Z,18.40
2019-04-10T12:48:10.438Z,19.10
2019-04-10T12:50:41.260Z,20.70
2019-04-10T12:53:15.617Z,20.60
2019-04-10T12:55:51.348Z,21.50
2019-04-10T12:58:22.480Z,22.10
2019-04-10T13:00:52.173Z,23.20
2019-04-10T13:03:21.016Z,21.50
2019-04-10T13:05:49.486Z,21.60
2019-04-10T13:08:23.688Z,21.10
2019-04-10T13:10:48.043Z,21.20
2019-04-10T13:13:16.503Z,21.20
2019-04-10T13:15:45.585Z,20.10
2019-04-10T13:18:14.342Z,20.40
2019-04-10T13:20:44.070Z,19.60
2019-04-10T13:23:14.895Z,21.20
2019-04-10T13:25:43.904Z,22.30
2019-04-10T13:28:13.002Z,23.10
2019-04-10T13:30:49.693Z,23.60
2019-04-10T13:33:12.342Z,23.50
2019-04-10T13:35:40.770Z,20.60
2019-04-10T13:38:09.204Z,19.80
2019-04-10T13:40:37.666Z,20.20
2019-04-10T13:43:06.103Z,19.40
2019-04-10T13:45:35.335Z,19.20
2019-04-10T13:48:03.957Z,18.90
2019-04-10T13:50:32.736Z,18.30
2019-04-10T13:53:01.691Z,19.10
2019-04-10T13:55:30.537Z,18.50
2019-04-10T13:58:00.016Z,18.70
2019-04-10T14:00:42.923Z,18.90
2019-04-10T14:03:12.241Z,18.10
2019-04-10T14:05:41.229Z,19.00
2019-04-10T14:08:10.447Z,18.30
2019-04-10T14:10:41.205Z,18.70
2019-04-10T14:13:09.150Z,19.00
2019-04-10T14:15:37.635Z,17.60
2019-04-10T14:18:06.763Z,18.50
2019-04-10T14:20:35.449Z,19.60
2019-04-10T14:23:08.609Z,19.80
2019-04-10T14:25:44.646Z,20.80
2019-04-10T14:28:13.126Z,19.50
2019-04-10T14:30:43.279Z,18.10
2019-04-10T14:33:12.873Z,17.60
2019-04-10T14:35:41.482Z,17.30
2019-04-10T14:38:10.680Z,17.30
2019-04-10T14:40:40.127Z,16.90
2019-04-10T14:43:09.027Z,16.60
2019-04-10T14:45:37.487Z,16.40
2019-04-10T14:48:05.880Z,15.50
2019-04-10T14:50:34.345Z,14.30
2019-04-10T14:53:03.388Z,14.30
2019-04-10T14:55:31.901Z,13.70
2019-04-10T14:58:01.259Z,14.00
2019-04-10T15:00:31.435Z,14.30
2019-04-10T15:03:00.160Z,14.70
2019-04-10T15:05:28.649Z,14.10
2019-04-10T15:07:57.518Z,14.40
2019-04-10T15:10:26.043Z,14.50
2019-04-10T15:15:24.424Z,13.80
2019-04-10T15:17:54.070Z,14.10
2019-04-10T15:20:22.861Z,14.20
2019-04-10T15:22:51.411Z,14.20
2019-04-10T15:25:19.876Z,14.20
2019-04-10T15:27:49.420Z,14.10
2019-04-10T15:30:18.216Z,14.20
2019-04-10T15:32:47.611Z,14.00
2019-04-10T15:35:16.120Z,13.90
2019-04-10T15:37:45.023Z,13.70
2019-04-10T17:39:27.103Z,9.70
2019-04-10T17:41:52.148Z,9.60
2019-04-10T17:44:21.297Z,9.60
2019-04-10T17:46:49.873Z,9.60
2019-04-10T17:49:19.306Z,9.50
2019-04-10T17:54:25.255Z,9.40
2019-04-10T17:56:54.786Z,9.40
2019-04-10T17:59:24.581Z,9.40
2019-04-10T18:01:53.674Z,9.30
2019-04-10T18:04:22.210Z,9.20
2019-04-10T18:06:50.669Z,9.10
2019-04-10T18:09:19.115Z,9.00
2019-04-10T18:11:47.735Z,9.10
2019-04-10T18:14:17.285Z,9.10
2019-04-10T18:16:46.368Z,9.00
2019-04-10T18:19:15.507Z,8.70
2019-04-10T18:21:44.392Z,8.70
2019-04-10T18:24:13.678Z,8.50
2019-04-10T18:26:42.210Z,8.50
2019-04-10T18:29:10.656Z,8.50
2019-04-10T18:31:39.089Z,8.40
2019-04-10T18:34:10.136Z,8.40
2019-04-10T18:36:38.536Z,8.40
2019-04-10T18:39:11.378Z,8.30
2019-04-10T18:41:38.926Z,8.20
2019-04-10T18:44:07.398Z,8.10
2019-04-10T18:46:35.825Z,8.00
2019-04-10T18:49:05.307Z,8.00
2019-04-10T18:51:34.129Z,7.90
2019-04-10T18:54:03.749Z,8.00
2019-04-10T18:56:33.386Z,7.90
2019-04-10T18:59:20.585Z,7.90
2019-04-10T19:01:56.487Z,7.80
2019-04-10T19:04:41.973Z,7.80
2019-04-10T19:07:11.234Z,7.70
2019-04-10T19:09:41.000Z,7.70
2019-04-10T19:12:10.603Z,7.70
2019-04-10T19:14:40.620Z,7.50
2019-04-10T19:17:09.222Z,7.50
2019-04-10T19:19:40.378Z,7.50
2019-04-10T19:22:09.607Z,7.50
2019-04-10T19:24:38.665Z,7.40
2019-04-10T19:27:07.617Z,7.30
2019-04-10T19:29:36.167Z,7.30
2019-04-10T19:32:06.230Z,7.30
2019-04-10T19:34:34.763Z,7.30
2019-04-10T19:37:04.066Z,7.40
2019-04-10T19:39:32.678Z,7.30
2019-04-10T19:42:01.103Z,7.40
2019-04-10T19:44:30.779Z,7.40
2019-04-10T19:46:59.274Z,7.30
2019-04-10T19:49:28.155Z,7.30
2019-04-10T19:51:56.687Z,7.40
2019-04-10T19:54:26.139Z,7.30
2019-04-10T19:56:55.032Z,7.20
2019-04-10T19:59:23.538Z,7.10
2019-04-10T20:01:52.772Z,7.20
2019-04-10T20:04:21.322Z,7.10
2019-04-10T20:06:49.758Z,6.90
2019-04-10T20:09:18.544Z,7.00
2019-04-10T20:11:52.621Z,7.10
2019-04-10T20:14:17.070Z,7.10
2019-04-10T20:16:45.552Z,7.00
2019-04-10T20:19:14.963Z,7.00
2019-04-10T20:21:44.002Z,6.80
2019-04-10T20:24:12.651Z,6.90
2019-04-10T20:26:41.231Z,6.90
2019-04-10T20:29:10.730Z,6.80
2019-04-10T20:31:39.601Z,6.90
2019-04-10T20:34:08.110Z,6.80
2019-04-10T20:36:37.262Z,7.20
2019-04-10T20:39:07.741Z,6.80
2019-04-10T20:41:47.701Z,6.60
2019-04-10T20:44:07.197Z,6.50
2019-04-10T20:46:35.998Z,6.40
2019-04-10T20:49:04.803Z,6.40
2019-04-10T20:51:33.265Z,6.40
2019-04-10T20:54:01.727Z,6.50
2019-04-10T20:56:30.675Z,6.40
2019-04-10T20:58:59.374Z,6.40
2019-04-10T21:01:28.823Z,6.30
2019-04-10T21:03:57.370Z,6.40
2019-04-10T21:06:25.792Z,6.30
2019-04-10T21:08:54.483Z,6.30
2019-04-10T21:11:22.981Z,6.30
2019-04-10T21:13:51.406Z,6.40
2019-04-10T21:16:19.887Z,6.30
2019-04-10T21:18:48.338Z,6.20
2019-04-10T21:21:16.769Z,6.20
2019-04-10T21:23:47.291Z,6.20
2019-04-10T21:26:16.383Z,6.20
2019-04-10T21:28:45.747Z,6.10
2019-04-10T21:31:25.318Z,6.10
2019-04-10T21:33:55.516Z,6.10
2019-04-10T21:36:24.076Z,6.00
2019-04-10T21:38:52.642Z,5.90
2019-04-10T21:41:22.068Z,5.90
2019-04-10T21:43:51.145Z,5.80
2019-04-10T21:46:20.733Z,5.80
2019-04-10T21:48:49.187Z,5.80
2019-04-10T21:51:17.661Z,5.80
2019-04-10T21:53:47.239Z,5.80
2019-04-10T21:56:15.967Z,5.80
2019-04-10T21:58:44.435Z,5.80
2019-04-10T22:01:13.556Z,6.70
2019-04-10T22:03:42.098Z,5.60
2019-04-10T22:06:28.440Z,5.60
2019-04-10T22:09:14.878Z,5.70
2019-04-10T22:11:47.726Z,5.70
2019-04-10T22:14:17.117Z,5.50
2019-04-10T22:16:46.373Z,5.60
2019-04-10T22:19:14.926Z,5.40
2019-04-10T22:21:44.065Z,5.50
2019-04-10T22:24:13.589Z,5.40
2019-04-10T22:26:42.473Z,5.20
2019-04-10T22:29:12.076Z,5.20
2019-04-10T22:31:41.600Z,5.40
2019-04-10T22:34:10.336Z,5.40
2019-04-10T22:36:39.934Z,5.30
2019-04-10T22:39:10.998Z,5.30
2019-04-10T22:41:40.469Z,5.30
2019-04-10T22:44:09.725Z,5.00
2019-04-10T22:46:38.404Z,5.20
2019-04-10T22:49:06.978Z,5.30
2019-04-10T22:51:35.653Z,5.40
2019-04-10T22:54:04.213Z,5.30
2019-04-10T22:56:33.599Z,5.00
2019-04-10T22:59:02.126Z,5.10
2019-04-10T23:01:31.318Z,5.00
2019-04-10T23:03:59.803Z,4.90
2019-04-10T23:06:29.228Z,4.80
2019-04-10T23:08:58.075Z,4.80
2019-04-10T23:11:34.834Z,4.80
2019-04-10T23:13:56.600Z,4.70
2019-04-10T23:16:25.962Z,4.70
2019-04-10T23:18:54.689Z,4.70
2019-04-10T23:21:23.134Z,4.70
2019-04-10T23:23:51.699Z,4.70
2019-04-10T23:26:20.780Z,4.80
2019-04-10T23:28:50.254Z,4.80
2019-04-10T23:31:18.713Z,4.70
2019-04-10T23:33:48.161Z,4.60
2019-04-10T23:36:18.043Z,4.40
2019-04-10T23:38:46.553Z,4.40
2019-04-10T23:41:15.660Z,4.50
2019-04-10T23:43:44.168Z,4.50
2019-04-10T23:46:12.770Z,4.60
2019-04-10T23:48:41.280Z,4.60
2019-04-10T23:51:10.589Z,4.50
2019-04-10T23:53:39.086Z,4.50
2019-04-10T23:56:07.530Z,4.40
2019-04-10T23:58:35.988Z,4.30
